createdAt,value
2023-04-05T00:02:29.979Z,100822.22
2023-04-05T00:04:59.836Z,100832.31
2023-04-05T00:07:28.416Z,100824.91
2023-04-05T00:09:56.787Z,100826.78
2023-04-05T00:12:25.041Z,100830.16
2023-04-05T00:14:54.655Z,100824.06
2023-04-05T00:17:23.017Z,100811.38
2023-04-05T00:19:57.479Z,100816.44
2023-04-05T00:22:27.277Z,100813.72
2023-04-05T00:24:55.839Z,100815.38
2023-04-05T00:27:23.962Z,100817.88
2023-04-05T00:29:52.132Z,100816.88
2023-04-05T00:32:22.236Z,100807.94
2023-04-05T00:34:51.793Z,100816.38
2023-04-05T00:37:19.813Z,100810.16
2023-04-05T00:39:48.460Z,100817.91
2023-04-05T00:42:17.024Z,100812.19
2023-04-05T00:44:45.107Z,100813.16
2023-04-05T00:47:13.287Z,100809.06
2023-04-05T00:49:43.392Z,100811.97
2023-04-05T00:52:11.716Z,100810.44
2023-04-05T00:54:41.682Z,100810.31
2023-04-05T00:57:09.878Z,100805.25
2023-04-05T00:59:39.236Z,100799.16
2023-04-05T01:02:13.646Z,100797.38
2023-04-05T01:04:50.100Z,100799.34
2023-04-05T01:07:24.864Z,100798.38
2023-04-05T01:09:55.054Z,100796.66
2023-04-05T01:12:25.186Z,100790.16
2023-04-05T01:14:54.380Z,100791.91
2023-04-05T01:17:23.104Z,100791.84
2023-04-05T01:19:54.525Z,100791.25
2023-04-05T01:22:43.506Z,100801.53
2023-04-05T01:25:24.224Z,100793.19
2023-04-05T01:28:07.169Z,100790.00
2023-04-05T01:30:39.065Z,100780.66
2023-04-05T01:33:15.754Z,100780.19
2023-04-05T01:35:47.640Z,100771.00
2023-04-05T01:38:19.127Z,100777.06
2023-04-05T01:40:47.763Z,100766.06
2023-04-05T01:43:16.130Z,100761.81
2023-04-05T01:45:46.179Z,100766.81
2023-04-05T01:48:14.619Z,100762.72
2023-04-05T01:50:43.511Z,100762.88
2023-04-05T01:53:11.928Z,100754.63
2023-04-05T01:55:39.965Z,100757.34
2023-04-05T01:58:09.974Z,100760.88
2023-04-05T02:00:38.970Z,100757.63
2023-04-05T02:03:08.904Z,100761.13
2023-04-05T02:05:37.591Z,100753.50
2023-04-05T02:08:05.578Z,100762.97
2023-04-05T02:10:33.875Z,100754.53
2023-04-05T02:13:02.199Z,100751.19
2023-04-05T02:15:32.951Z,100756.13
2023-04-05T02:18:02.433Z,100750.06
2023-04-05T02:20:33.285Z,100745.84
2023-04-05T02:23:02.109Z,100750.13
2023-04-05T02:25:30.349Z,100754.44
2023-04-05T02:27:58.960Z,100759.47
2023-04-05T02:30:29.069Z,100749.34
2023-04-05T02:32:58.178Z,100750.19
2023-04-05T02:35:26.271Z,100755.53
2023-04-05T02:37:56.856Z,100751.44
2023-04-05T02:40:25.640Z,100756.75
2023-04-05T02:42:53.496Z,100754.25
2023-04-05T02:45:21.673Z,100750.75
2023-04-05T02:47:50.389Z,100750.91
2023-04-05T02:50:20.699Z,100750.00
2023-04-05T02:52:49.229Z,100749.91
2023-04-05T02:55:19.711Z,100753.50
2023-04-05T02:57:47.669Z,100754.28
2023-04-05T03:00:26.384Z,100744.84
2023-04-05T03:02:56.706Z,100751.66
2023-04-05T03:05:25.492Z,100744.09
2023-04-05T03:07:54.799Z,100740.63
2023-04-05T03:10:35.140Z,100745.03
2023-04-05T03:13:12.725Z,100740.81
2023-04-05T03:15:42.504Z,100733.22
2023-04-05T03:18:14.586Z,100732.44
2023-04-05T03:20:46.421Z,100731.56
2023-04-05T03:23:20.437Z,100727.41
2023-04-05T03:25:56.844Z,100728.25
2023-04-05T03:28:28.415Z,100718.94
2023-04-05T03:31:02.012Z,100717.31
2023-04-05T03:33:30.819Z,100724.91
2023-04-05T03:35:59.023Z,100720.66
2023-04-05T03:38:29.562Z,100718.94
2023-04-05T03:41:13.057Z,100725.78
2023-04-05T03:43:41.201Z,100726.59
2023-04-05T03:46:09.770Z,100729.13
2023-04-05T03:48:37.984Z,100727.28
2023-04-05T03:51:06.357Z,100729.75
2023-04-05T03:53:34.518Z,100719.59
2023-04-05T03:56:03.976Z,100725.53
2023-04-05T03:58:49.713Z,100720.44
2023-04-05T04:01:23.924Z,100723.97
2023-04-05T04:03:52.103Z,100720.47
2023-04-05T04:06:20.347Z,100718.00
2023-04-05T04:08:48.461Z,100713.75
2023-04-05T04:11:16.742Z,100706.13
2023-04-05T04:13:46.396Z,100709.56
2023-04-05T04:16:23.669Z,100713.53
2023-04-05T04:19:14.947Z,100720.56
2023-04-05T04:21:53.493Z,100726.59
2023-04-05T04:24:32.859Z,100713.91
2023-04-05T04:27:29.514Z,100710.56
2023-04-05T04:30:22.801Z,100713.06
2023-04-05T04:33:09.337Z,100712.31
2023-04-05T04:35:56.651Z,100720.91
2023-04-05T04:38:48.386Z,100713.22
2023-04-05T04:41:38.468Z,100711.56
2023-04-05T04:44:31.596Z,100709.75
2023-04-05T04:47:24.300Z,100708.13
2023-04-05T04:50:05.431Z,100714.00
2023-04-05T04:52:35.034Z,100721.63
2023-04-05T04:55:04.335Z,100716.34
2023-04-05T04:57:32.492Z,100713.72
2023-04-05T05:00:00.705Z,100716.13
2023-04-05T05:02:31.456Z,100715.03
2023-04-05T05:04:59.796Z,100720.84
2023-04-05T05:07:27.959Z,100713.00
2023-04-05T05:09:56.047Z,100723.03
2023-04-05T05:12:24.770Z,100726.22
2023-04-05T05:14:52.948Z,100727.84
2023-04-05T05:17:25.705Z,100728.53
2023-04-05T05:19:56.396Z,100732.81
2023-04-05T05:22:25.134Z,100726.84
2023-04-05T05:24:53.055Z,100729.78
2023-04-05T05:27:21.810Z,100725.91
2023-04-05T05:29:50.292Z,100730.75
2023-04-05T05:32:18.364Z,100733.03
2023-04-05T05:34:49.207Z,100732.09
2023-04-05T05:37:18.633Z,100736.97
2023-04-05T05:39:46.807Z,100733.69
2023-04-05T05:42:14.787Z,100736.34
2023-04-05T05:44:42.990Z,100729.56
2023-04-05T05:47:11.484Z,100731.94
2023-04-05T05:49:43.573Z,100739.53
2023-04-05T05:52:11.821Z,100736.06
2023-04-05T05:54:41.768Z,100741.84
2023-04-05T05:57:09.931Z,100745.91
2023-04-05T05:59:38.215Z,100740.28
2023-04-05T06:02:08.578Z,100739.19
2023-04-05T06:04:38.253Z,100740.34
2023-04-05T06:07:06.536Z,100737.78
2023-04-05T06:09:35.583Z,100752.31
2023-04-05T06:12:06.809Z,100746.66
2023-04-05T06:14:35.375Z,100748.19
2023-04-05T06:17:04.520Z,100750.53
2023-04-05T06:19:33.578Z,100753.53
2023-04-05T06:22:02.755Z,100753.69
2023-04-05T06:24:32.339Z,100759.25
2023-04-05T06:27:02.148Z,100755.94
2023-04-05T06:29:32.642Z,100750.03
2023-04-05T06:32:03.246Z,100758.00
2023-04-05T06:34:37.432Z,100745.13
2023-04-05T06:37:06.517Z,100751.72
2023-04-05T06:39:34.653Z,100747.00
2023-04-05T06:42:02.847Z,100741.78
2023-04-05T06:44:41.479Z,100743.34
2023-04-05T06:47:10.177Z,100747.13
2023-04-05T06:49:38.641Z,100745.56
2023-04-05T06:52:07.092Z,100739.53
2023-04-05T06:54:38.643Z,100750.31
2023-04-05T06:57:06.861Z,100746.84
2023-04-05T06:59:37.194Z,100747.78
2023-04-05T07:02:06.917Z,100738.75
2023-04-05T07:04:37.206Z,100749.19
2023-04-05T07:07:06.784Z,100748.31
2023-04-05T07:09:38.276Z,100740.44
2023-04-05T07:12:08.812Z,100737.94
2023-04-05T07:14:37.798Z,100738.06
2023-04-05T07:17:07.854Z,100741.19
2023-04-05T07:19:36.321Z,100746.84
2023-04-05T07:22:04.270Z,100736.88
2023-04-05T07:24:33.208Z,100743.97
2023-04-05T07:27:03.058Z,100745.22
2023-04-05T07:29:31.386Z,100738.19
2023-04-05T07:31:59.730Z,100732.84
2023-04-05T07:34:29.342Z,100738.22
2023-04-05T07:36:58.076Z,100728.84
2023-04-05T07:39:26.586Z,100735.56
2023-04-05T07:41:54.627Z,100733.59
2023-04-05T07:44:23.199Z,100734.31
2023-04-05T07:46:51.761Z,100742.50
2023-04-05T07:49:22.141Z,100738.28
2023-04-05T07:51:55.601Z,100728.06
2023-04-05T07:54:24.170Z,100737.44
2023-04-05T07:56:55.472Z,100733.41
2023-04-05T07:59:23.806Z,100732.56
2023-04-05T08:01:52.869Z,100735.75
2023-04-05T08:04:25.323Z,100738.06
2023-04-05T08:06:55.021Z,100741.22
2023-04-05T08:09:25.193Z,100736.13
2023-04-05T08:11:54.117Z,100733.13
2023-04-05T08:14:25.096Z,100737.75
2023-04-05T08:16:55.036Z,100733.06
2023-04-05T08:19:23.397Z,100738.69
2023-04-05T08:21:52.038Z,100735.84
2023-04-05T08:24:22.438Z,100731.72
2023-04-05T08:26:50.598Z,100738.81
2023-04-05T08:29:19.052Z,100729.63
2023-04-05T08:31:48.004Z,100735.31
2023-04-05T08:34:17.221Z,100730.41
2023-04-05T08:36:48.877Z,100724.59
2023-04-05T08:39:17.797Z,100728.28
2023-04-05T08:41:50.305Z,100725.09
2023-04-05T08:44:20.600Z,100726.91
2023-04-05T08:46:56.261Z,100725.97
2023-04-05T08:49:30.111Z,100730.13
2023-04-05T08:52:01.360Z,100725.75
2023-04-05T08:54:32.672Z,100722.13
2023-04-05T08:57:05.988Z,100721.50
2023-04-05T08:59:35.649Z,100723.25
2023-04-05T09:02:07.815Z,100718.84
2023-04-05T09:04:39.859Z,100721.97
2023-04-05T09:07:08.751Z,100712.22
2023-04-05T09:09:39.389Z,100712.00
2023-04-05T09:12:11.621Z,100718.50
2023-04-05T09:14:40.309Z,100717.25
2023-04-05T09:17:08.847Z,100712.78
2023-04-05T09:19:38.336Z,100714.41
2023-04-05T09:22:07.715Z,100711.84
2023-04-05T09:24:43.443Z,100714.25
2023-04-05T09:27:16.089Z,100710.34
2023-04-05T09:29:47.572Z,100706.53
2023-04-05T09:32:19.748Z,100707.50
2023-04-05T09:34:48.277Z,100703.66
2023-04-05T09:37:29.223Z,100706.00
2023-04-05T09:40:07.498Z,100706.00
2023-04-05T09:42:45.635Z,100696.78
2023-04-05T09:45:14.711Z,100708.53
2023-04-05T09:48:10.189Z,100703.94
2023-04-05T09:50:39.343Z,100710.84
2023-04-05T09:53:09.997Z,100701.13
2023-04-05T09:55:38.352Z,100706.75
2023-04-05T09:58:13.135Z,100699.44
2023-04-05T10:01:00.060Z,100703.00
2023-04-05T10:03:47.423Z,100699.47
2023-04-05T10:06:15.602Z,100709.56
2023-04-05T10:08:43.750Z,100703.63
2023-04-05T10:11:13.638Z,100693.56
2023-04-05T10:13:45.055Z,100696.56
2023-04-05T10:16:19.414Z,100698.16
2023-04-05T10:18:51.727Z,100693.72
2023-04-05T10:21:22.845Z,100690.88
2023-04-05T10:23:56.476Z,100685.47
2023-04-05T10:26:31.568Z,100678.47
2023-04-05T10:29:05.145Z,100678.81
2023-04-05T10:58:37.641Z,100669.41
2023-04-05T12:18:48.406Z,100608.94
2023-04-05T12:22:25.056Z,100608.47
2023-04-05T13:37:18.272Z,100523.19
2023-04-05T14:27:01.773Z,100479.91
2023-04-05T14:29:39.505Z,100474.81
2023-04-05T14:35:09.874Z,100482.44
2023-04-05T14:40:31.497Z,100464.38
2023-04-05T14:46:17.467Z,100461.03
2023-04-05T14:52:07.154Z,100461.47
2023-04-05T14:54:37.104Z,100455.09
2023-04-05T14:57:36.130Z,100458.97
2023-04-05T15:03:13.211Z,100442.19
2023-04-05T15:14:32.427Z,100447.25
2023-04-05T15:17:03.768Z,100426.00
2023-04-05T15:30:39.856Z,100424.94
2023-04-05T15:37:06.468Z,100409.63
2023-04-05T16:03:27.589Z,100404.72
2023-04-05T16:27:26.675Z,100395.97
2023-04-05T16:29:54.973Z,100400.50
2023-04-05T16:32:27.170Z,100392.84
2023-04-05T16:34:56.364Z,100384.03
2023-04-05T16:53:02.822Z,100374.97
2023-04-05T16:56:08.679Z,100374.06
2023-04-05T17:01:22.508Z,100374.34
2023-04-05T17:03:53.398Z,100378.97
2023-04-05T17:06:22.953Z,100373.53
2023-04-05T17:08:53.483Z,100370.53
2023-04-05T17:11:25.273Z,100368.31
2023-04-05T17:13:55.371Z,100372.28
2023-04-05T17:16:24.270Z,100373.41
2023-04-05T17:18:53.810Z,100369.09
2023-04-05T17:21:23.415Z,100364.84
2023-04-05T17:23:55.032Z,100363.03
2023-04-05T17:26:26.892Z,100367.06
2023-04-05T17:28:56.130Z,100361.13
2023-04-05T17:31:24.278Z,100364.66
2023-04-05T17:33:56.224Z,100360.34
2023-04-05T17:36:34.071Z,100364.34
2023-04-05T17:39:02.218Z,100368.09
2023-04-05T17:41:30.533Z,100368.13
2023-04-05T17:44:06.408Z,100378.78
2023-04-05T17:49:20.269Z,100372.09
2023-04-05T17:51:54.964Z,100369.72
2023-04-05T17:54:23.425Z,100367.16
2023-04-05T17:56:58.414Z,100367.44
2023-04-05T17:59:26.935Z,100369.22
2023-04-05T18:01:56.774Z,100374.25
2023-04-05T18:04:26.109Z,100376.50
2023-04-05T18:06:56.520Z,100368.38
2023-04-05T18:09:24.778Z,100369.94
2023-04-05T18:11:57.123Z,100372.88
2023-04-05T18:14:30.404Z,100368.25
2023-04-05T18:17:10.562Z,100373.94
2023-04-05T18:20:07.833Z,100378.50
2023-04-05T18:22:39.872Z,100374.38
2023-04-05T18:25:33.375Z,100373.41
2023-04-05T18:28:22.755Z,100388.25
2023-04-05T18:30:53.188Z,100383.69
2023-04-05T18:33:22.692Z,100388.56
2023-04-05T18:35:53.130Z,100391.34
2023-04-05T18:38:23.101Z,100396.63
2023-04-05T18:41:08.478Z,100403.16
2023-04-05T18:43:36.737Z,100400.53
2023-04-05T18:46:10.612Z,100392.63
2023-04-05T18:48:39.382Z,100396.75
2023-04-05T18:51:08.302Z,100396.81
2023-04-05T18:53:38.197Z,100397.63
2023-04-05T18:56:06.518Z,100401.88
2023-04-05T18:58:40.035Z,100405.09
2023-04-05T19:01:15.446Z,100410.97
2023-04-05T19:03:44.069Z,100406.19
2023-04-05T19:06:14.869Z,100410.28
2023-04-05T19:08:48.435Z,100410.81
2023-04-05T19:11:18.596Z,100416.66
2023-04-05T19:13:47.930Z,100412.19
2023-04-05T19:16:17.625Z,100414.75
2023-04-05T19:18:46.190Z,100417.66
2023-04-05T19:21:15.957Z,100426.75
2023-04-05T19:23:45.425Z,100426.03
2023-04-05T19:26:13.946Z,100426.47
2023-04-05T19:28:43.715Z,100426.94
2023-04-05T19:31:13.258Z,100423.47
2023-04-05T19:33:41.396Z,100433.91
2023-04-05T19:36:09.380Z,100431.72
2023-04-05T19:41:26.118Z,100436.94
2023-04-05T19:43:58.116Z,100436.19
2023-04-05T19:46:29.520Z,100432.59
2023-04-05T19:48:59.453Z,100427.16
2023-04-05T19:51:28.687Z,100430.97
2023-04-05T19:53:57.798Z,100429.38
2023-04-05T19:56:36.868Z,100422.56
2023-04-05T19:59:26.154Z,100434.75
2023-04-05T20:02:01.126Z,100427.84
2023-04-05T20:04:39.216Z,100426.56
2023-04-05T20:07:10.382Z,100433.13
2023-04-05T20:09:42.197Z,100433.38
2023-04-05T20:12:16.241Z,100428.44
2023-04-05T20:14:48.017Z,100436.47
2023-04-05T20:17:34.147Z,100433.25
2023-04-05T20:20:02.172Z,100428.59
2023-04-05T20:22:32.925Z,100424.53
2023-04-05T20:25:01.066Z,100428.66
2023-04-05T20:27:30.859Z,100424.50
2023-04-05T20:29:58.954Z,100424.59
2023-04-05T20:32:28.018Z,100426.69
2023-04-05T20:34:56.629Z,100424.31
2023-04-05T20:37:25.962Z,100421.28
2023-04-05T20:39:58.648Z,100420.00
2023-04-05T20:42:26.883Z,100413.69
2023-04-05T20:45:05.054Z,100417.34
2023-04-05T20:47:34.228Z,100419.63
2023-04-05T20:50:03.621Z,100406.78
2023-04-05T20:52:32.596Z,100414.31
2023-04-05T20:55:01.897Z,100413.13
2023-04-05T20:57:30.904Z,100408.34
2023-04-05T21:00:02.442Z,100406.19
2023-04-05T21:02:31.409Z,100400.31
2023-04-05T21:05:00.548Z,100395.44
2023-04-05T21:07:28.921Z,100402.81
2023-04-05T21:09:57.329Z,100403.06
2023-04-05T21:12:25.710Z,100404.03
2023-04-05T21:14:54.511Z,100410.31
2023-04-05T21:17:24.300Z,100406.19
2023-04-05T21:19:53.310Z,100413.09
2023-04-05T21:22:24.897Z,100409.53
2023-04-05T21:24:53.322Z,100408.66
2023-04-05T21:27:24.880Z,100398.41
2023-04-05T21:29:54.596Z,100405.44
2023-04-05T21:32:24.779Z,100412.38
2023-04-05T21:34:53.421Z,100413.22
2023-04-05T21:37:22.228Z,100414.81
2023-04-05T21:39:50.426Z,100408.97
2023-04-05T21:42:19.107Z,100411.81
2023-04-05T21:44:48.076Z,100403.69
2023-04-05T21:47:17.574Z,100400.75
2023-04-05T21:49:47.577Z,100399.13
2023-04-05T21:52:17.645Z,100410.66
2023-04-05T21:54:47.228Z,100414.63
2023-04-05T21:57:17.895Z,100410.75
2023-04-05T21:59:48.324Z,100409.72
2023-04-05T22:02:16.445Z,100415.84
2023-04-05T22:04:48.060Z,100410.06
2023-04-05T22:07:17.303Z,100405.66
2023-04-05T22:09:45.796Z,100404.91
2023-04-05T22:12:15.516Z,100399.28
2023-04-05T22:14:43.823Z,100402.00
2023-04-05T22:17:11.934Z,100410.72
2023-04-05T22:19:44.008Z,100412.13
2023-04-05T22:22:15.135Z,100403.03
2023-04-05T22:24:43.615Z,100411.50
2023-04-05T22:27:13.596Z,100405.50
2023-04-05T22:29:41.984Z,100408.81
2023-04-05T22:32:10.449Z,100404.03
2023-04-05T22:34:39.126Z,100408.34
2023-04-05T22:37:07.315Z,100404.09
2023-04-05T22:39:37.578Z,100407.88
2023-04-05T22:42:06.629Z,100407.19
2023-04-05T22:44:34.806Z,100405.63
2023-04-05T22:47:03.416Z,100409.00
2023-04-05T22:49:32.129Z,100407.03
2023-04-05T22:52:02.168Z,100411.78
2023-04-05T22:54:30.518Z,100406.31
2023-04-05T22:57:04.199Z,100408.69
2023-04-05T22:59:33.456Z,100405.94
2023-04-05T23:02:01.873Z,100397.19
2023-04-05T23:04:30.145Z,100403.03
2023-04-05T23:06:58.397Z,100392.88
2023-04-05T23:09:26.624Z,100397.69
2023-04-05T23:11:54.907Z,100397.34
2023-04-05T23:14:24.906Z,100394.94
2023-04-05T23:16:53.277Z,100394.31
2023-04-05T23:19:22.270Z,100400.16
2023-04-05T23:21:51.359Z,100395.84
2023-04-05T23:24:20.617Z,100396.56
2023-04-05T23:26:49.909Z,100399.34
2023-04-05T23:29:19.699Z,100404.56
2023-04-05T23:31:50.130Z,100403.63
2023-04-05T23:34:19.100Z,100396.13
2023-04-05T23:36:47.581Z,100401.72
2023-04-05T23:39:16.894Z,100402.78
2023-04-05T23:41:46.508Z,100401.13
2023-04-05T23:44:14.996Z,100396.00
2023-04-05T23:46:43.453Z,100394.25
2023-04-05T23:49:14.411Z,100392.56
2023-04-05T23:51:43.286Z,100394.38
2023-04-05T23:54:12.080Z,100384.53
2023-04-05T23:56:40.597Z,100389.13
2023-04-05T23:59:09.355Z,100388.06
